sensor_id;sensor_type;location;lat;lon;timestamp;P1;durP1;ratioP1;P2;durP2;ratioP2
38611;SDS011;24368;52.156;20.788;2023-07-22T00:00:04;5.00;;;4.60;;
38611;SDS011;24368;52.156;20.788;2023-07-22T00:05:08;5.90;;;5.40;;
38611;SDS011;24368;52.156;20.788;2023-07-22T00:10:11;6.10;;;4.80;;
38611;SDS011;24368;52.156;20.788;2023-07-22T00:15:13;6.00;;;5.30;;
38611;SDS011;24368;52.156;20.788;2023-07-22T00:20:15;6.20;;;5.60;;
38611;SDS011;24368;52.156;20.788;2023-07-22T00:25:18;5.60;;;5.20;;
38611;SDS011;24368;52.156;20.788;2023-07-22T00:30:19;6.00;;;5.40;;
38611;SDS011;24368;52.156;20.788;2023-07-22T00:35:21;5.60;;;5.20;;
38611;SDS011;24368;52.156;20.788;2023-07-22T00:40:23;6.10;;;5.50;;
38611;SDS011;24368;52.156;20.788;2023-07-22T00:45:25;6.20;;;5.60;;
38611;SDS011;24368;52.156;20.788;2023-07-22T00:50:28;6.90;;;6.40;;
38611;SDS011;24368;52.156;20.788;2023-07-22T00:55:30;6.90;;;6.20;;
38611;SDS011;24368;52.156;20.788;2023-07-22T01:00:34;6.90;;;6.40;;
38611;SDS011;24368;52.156;20.788;2023-07-22T01:05:36;6.50;;;5.90;;
38611;SDS011;24368;52.156;20.788;2023-07-22T01:10:39;6.50;;;5.90;;
38611;SDS011;24368;52.156;20.788;2023-07-22T01:15:41;6.70;;;6.20;;
38611;SDS011;24368;52.156;20.788;2023-07-22T01:20:44;7.70;;;6.90;;
38611;SDS011;24368;52.156;20.788;2023-07-22T01:25:47;7.70;;;7.00;;
38611;SDS011;24368;52.156;20.788;2023-07-22T01:30:49;8.10;;;7.40;;
38611;SDS011;24368;52.156;20.788;2023-07-22T01:35:51;8.50;;;7.80;;
38611;SDS011;24368;52.156;20.788;2023-07-22T01:40:53;8.80;;;8.20;;
38611;SDS011;24368;52.156;20.788;2023-07-22T01:45:55;8.80;;;8.10;;
38611;SDS011;24368;52.156;20.788;2023-07-22T01:50:56;9.90;;;8.90;;
38611;SDS011;24368;52.156;20.788;2023-07-22T01:55:58;9.20;;;8.40;;
38611;SDS011;24368;52.156;20.788;2023-07-22T02:01:00;8.90;;;8.20;;
38611;SDS011;24368;52.156;20.788;2023-07-22T02:06:02;9.90;;;9.00;;
38611;SDS011;24368;52.156;20.788;2023-07-22T02:11:05;11.50;;;10.60;;
38611;SDS011;24368;52.156;20.788;2023-07-22T02:16:08;10.20;;;9.20;;
38611;SDS011;24368;52.156;20.788;2023-07-22T02:21:13;9.70;;;9.00;;
38611;SDS011;24368;52.156;20.788;2023-07-22T02:26:15;9.70;;;8.90;;
38611;SDS011;24368;52.156;20.788;2023-07-22T02:31:16;9.70;;;8.90;;
38611;SDS011;24368;52.156;20.788;2023-07-22T02:36:18;8.40;;;7.60;;
38611;SDS011;24368;52.156;20.788;2023-07-22T02:41:20;9.40;;;8.60;;
38611;SDS011;24368;52.156;20.788;2023-07-22T02:46:23;8.50;;;7.80;;
38611;SDS011;24368;52.156;20.788;2023-07-22T02:51:24;8.10;;;7.40;;
38611;SDS011;24368;52.156;20.788;2023-07-22T02:56:26;8.10;;;7.40;;
38611;SDS011;24368;52.156;20.788;2023-07-22T03:01:28;7.10;;;6.50;;
38611;SDS011;24368;52.156;20.788;2023-07-22T03:06:30;7.60;;;7.00;;
38611;SDS011;24368;52.156;20.788;2023-07-22T03:11:32;7.80;;;7.20;;
38611;SDS011;24368;52.156;20.788;2023-07-22T03:16:35;7.40;;;6.80;;
38611;SDS011;24368;52.156;20.788;2023-07-22T03:21:37;6.90;;;6.30;;
38611;SDS011;24368;52.156;20.788;2023-07-22T03:26:39;7.20;;;6.60;;
38611;SDS011;24368;52.156;20.788;2023-07-22T03:31:41;7.20;;;6.50;;
38611;SDS011;24368;52.156;20.788;2023-07-22T03:36:42;6.50;;;6.00;;
38611;SDS011;24368;52.156;20.788;2023-07-22T03:41:44;7.20;;;6.60;;
38611;SDS011;24368;52.156;20.788;2023-07-22T03:46:46;7.20;;;6.70;;
38611;SDS011;24368;52.156;20.788;2023-07-22T03:51:47;7.10;;;6.50;;
38611;SDS011;24368;52.156;20.788;2023-07-22T03:56:49;6.90;;;6.30;;
38611;SDS011;24368;52.156;20.788;2023-07-22T04:01:51;6.60;;;6.20;;
38611;SDS011;24368;52.156;20.788;2023-07-22T04:06:53;8.00;;;7.20;;
38611;SDS011;24368;52.156;20.788;2023-07-22T04:11:54;7.00;;;6.50;;
38611;SDS011;24368;52.156;20.788;2023-07-22T04:16:56;6.30;;;5.80;;
38611;SDS011;24368;52.156;20.788;2023-07-22T04:21:58;7.00;;;6.50;;
38611;SDS011;24368;52.156;20.788;2023-07-22T04:27:05;6.80;;;6.30;;
38611;SDS011;24368;52.156;20.788;2023-07-22T04:32:07;6.70;;;5.80;;
38611;SDS011;24368;52.156;20.788;2023-07-22T04:37:09;6.40;;;5.70;;
38611;SDS011;24368;52.156;20.788;2023-07-22T04:42:11;7.50;;;6.30;;
38611;SDS011;24368;52.156;20.788;2023-07-22T04:47:12;6.70;;;5.80;;
38611;SDS011;24368;52.156;20.788;2023-07-22T04:52:14;7.00;;;6.30;;
38611;SDS011;24368;52.156;20.788;2023-07-22T04:57:16;6.40;;;5.90;;
38611;SDS011;24368;52.156;20.788;2023-07-22T05:02:18;6.80;;;6.10;;
38611;SDS011;24368;52.156;20.788;2023-07-22T05:07:20;10.20;;;9.20;;
38611;SDS011;24368;52.156;20.788;2023-07-22T05:12:22;6.70;;;6.10;;
38611;SDS011;24368;52.156;20.788;2023-07-22T05:17:24;6.60;;;6.10;;
38611;SDS011;24368;52.156;20.788;2023-07-22T05:22:27;8.10;;;7.30;;
38611;SDS011;24368;52.156;20.788;2023-07-22T05:27:29;7.20;;;6.50;;
38611;SDS011;24368;52.156;20.788;2023-07-22T05:32:30;7.60;;;6.80;;
38611;SDS011;24368;52.156;20.788;2023-07-22T05:37:32;6.40;;;5.80;;
38611;SDS011;24368;52.156;20.788;2023-07-22T05:42:34;8.30;;;7.50;;
38611;SDS011;24368;52.156;20.788;2023-07-22T05:47:36;9.50;;;8.50;;
38611;SDS011;24368;52.156;20.788;2023-07-22T05:52:38;9.00;;;8.10;;
38611;SDS011;24368;52.156;20.788;2023-07-22T05:57:39;7.10;;;6.50;;
38611;SDS011;24368;52.156;20.788;2023-07-22T06:02:41;6.20;;;5.70;;
38611;SDS011;24368;52.156;20.788;2023-07-22T06:07:43;6.40;;;5.90;;
38611;SDS011;24368;52.156;20.788;2023-07-22T06:12:45;6.60;;;5.80;;
38611;SDS011;24368;52.156;20.788;2023-07-22T06:17:48;6.60;;;5.90;;
38611;SDS011;24368;52.156;20.788;2023-07-22T06:22:50;6.10;;;5.70;;
38611;SDS011;24368;52.156;20.788;2023-07-22T06:27:52;5.30;;;4.20;;
38611;SDS011;24368;52.156;20.788;2023-07-22T06:32:55;3.40;;;3.10;;
38611;SDS011;24368;52.156;20.788;2023-07-22T06:37:57;3.20;;;3.00;;
38611;SDS011;24368;52.156;20.788;2023-07-22T06:42:59;3.30;;;3.10;;
38611;SDS011;24368;52.156;20.788;2023-07-22T06:48:00;3.00;;;2.80;;
38611;SDS011;24368;52.156;20.788;2023-07-22T06:53:02;2.20;;;2.00;;
38611;SDS011;24368;52.156;20.788;2023-07-22T06:58:05;3.10;;;2.90;;
38611;SDS011;24368;52.156;20.788;2023-07-22T07:03:06;3.00;;;2.60;;
38611;SDS011;24368;52.156;20.788;2023-07-22T07:08:08;4.10;;;2.40;;
38611;SDS011;24368;52.156;20.788;2023-07-22T07:13:13;3.00;;;2.80;;
38611;SDS011;24368;52.156;20.788;2023-07-22T07:18:15;3.10;;;2.90;;
38611;SDS011;24368;52.156;20.788;2023-07-22T07:23:18;2.80;;;2.60;;
38611;SDS011;24368;52.156;20.788;2023-07-22T07:28:20;3.10;;;2.40;;
38611;SDS011;24368;52.156;20.788;2023-07-22T07:33:22;5.20;;;2.30;;
38611;SDS011;24368;52.156;20.788;2023-07-22T07:38:24;2.40;;;2.20;;
38611;SDS011;24368;52.156;20.788;2023-07-22T07:43:26;2.50;;;1.80;;
38611;SDS011;24368;52.156;20.788;2023-07-22T07:48:28;1.90;;;1.80;;
38611;SDS011;24368;52.156;20.788;2023-07-22T07:53:30;2.60;;;1.80;;
38611;SDS011;24368;52.156;20.788;2023-07-22T07:58:31;2.50;;;2.20;;
38611;SDS011;24368;52.156;20.788;2023-07-22T08:03:34;2.20;;;1.70;;
38611;SDS011;24368;52.156;20.788;2023-07-22T08:08:37;5.20;;;2.10;;
38611;SDS011;24368;52.156;20.788;2023-07-22T08:13:40;2.90;;;2.30;;
38611;SDS011;24368;52.156;20.788;2023-07-22T08:18:42;3.30;;;2.00;;
38611;SDS011;24368;52.156;20.788;2023-07-22T08:23:45;4.40;;;1.90;;
38611;SDS011;24368;52.156;20.788;2023-07-22T08:28:48;2.50;;;1.90;;
38611;SDS011;24368;52.156;20.788;2023-07-22T08:33:50;3.50;;;1.70;;
38611;SDS011;24368;52.156;20.788;2023-07-22T08:38:52;2.20;;;2.00;;
38611;SDS011;24368;52.156;20.788;2023-07-22T08:43:54;6.40;;;5.70;;
38611;SDS011;24368;52.156;20.788;2023-07-22T08:48:59;3.40;;;3.10;;
38611;SDS011;24368;52.156;20.788;2023-07-22T08:54:02;4.50;;;2.50;;
38611;SDS011;24368;52.156;20.788;2023-07-22T08:59:05;5.30;;;4.80;;
38611;SDS011;24368;52.156;20.788;2023-07-22T09:04:07;4.00;;;2.90;;
38611;SDS011;24368;52.156;20.788;2023-07-22T09:09:10;3.10;;;2.30;;
38611;SDS011;24368;52.156;20.788;2023-07-22T09:14:13;7.50;;;6.80;;
38611;SDS011;24368;52.156;20.788;2023-07-22T09:19:15;3.70;;;3.20;;
38611;SDS011;24368;52.156;20.788;2023-07-22T09:24:21;3.00;;;2.70;;
38611;SDS011;24368;52.156;20.788;2023-07-22T09:29:45;2.90;;;2.50;;
38611;SDS011;24368;52.156;20.788;2023-07-22T09:34:55;3.20;;;2.00;;
38611;SDS011;24368;52.156;20.788;2023-07-22T09:44:59;3.20;;;1.60;;
38611;SDS011;24368;52.156;20.788;2023-07-22T09:50:01;1.60;;;1.50;;
38611;SDS011;24368;52.156;20.788;2023-07-22T09:55:02;3.80;;;2.00;;
38611;SDS011;24368;52.156;20.788;2023-07-22T10:00:05;1.60;;;1.50;;
38611;SDS011;24368;52.156;20.788;2023-07-22T10:05:14;2.40;;;1.40;;
38611;SDS011;24368;52.156;20.788;2023-07-22T10:10:23;1.30;;;1.10;;
38611;SDS011;24368;52.156;20.788;2023-07-22T10:15:29;1.90;;;1.60;;
38611;SDS011;24368;52.156;20.788;2023-07-22T10:20:34;2.10;;;1.10;;
38611;SDS011;24368;52.156;20.788;2023-07-22T10:25:37;1.90;;;1.80;;
38611;SDS011;24368;52.156;20.788;2023-07-22T10:30:40;2.30;;;1.10;;
38611;SDS011;24368;52.156;20.788;2023-07-22T10:35:43;1.40;;;1.30;;
38611;SDS011;24368;52.156;20.788;2023-07-22T10:41:13;1.30;;;1.20;;
38611;SDS011;24368;52.156;20.788;2023-07-22T10:46:18;3.00;;;1.30;;
38611;SDS011;24368;52.156;20.788;2023-07-22T10:51:35;1.80;;;1.70;;
38611;SDS011;24368;52.156;20.788;2023-07-22T10:56:38;2.10;;;1.70;;
38611;SDS011;24368;52.156;20.788;2023-07-22T11:01:43;1.50;;;1.40;;
38611;SDS011;24368;52.156;20.788;2023-07-22T11:11:50;1.40;;;1.30;;
38611;SDS011;24368;52.156;20.788;2023-07-22T11:16:52;1.30;;;1.20;;
38611;SDS011;24368;52.156;20.788;2023-07-22T11:21:54;2.60;;;1.30;;
38611;SDS011;24368;52.156;20.788;2023-07-22T11:26:56;2.20;;;1.20;;
38611;SDS011;24368;52.156;20.788;2023-07-22T11:31:58;3.00;;;1.20;;
38611;SDS011;24368;52.156;20.788;2023-07-22T11:37:00;1.70;;;1.60;;
38611;SDS011;24368;52.156;20.788;2023-07-22T11:42:02;2.70;;;1.50;;
38611;SDS011;24368;52.156;20.788;2023-07-22T11:47:06;1.70;;;1.40;;
38611;SDS011;24368;52.156;20.788;2023-07-22T11:52:15;1.50;;;1.40;;
38611;SDS011;24368;52.156;20.788;2023-07-22T11:57:21;1.50;;;1.40;;
38611;SDS011;24368;52.156;20.788;2023-07-22T12:02:25;2.50;;;1.50;;
38611;SDS011;24368;52.156;20.788;2023-07-22T12:07:28;1.50;;;1.40;;
38611;SDS011;24368;52.156;20.788;2023-07-22T12:12:45;3.50;;;1.40;;
38611;SDS011;24368;52.156;20.788;2023-07-22T12:17:54;1.40;;;1.30;;
38611;SDS011;24368;52.156;20.788;2023-07-22T12:23:00;0.70;;;0.70;;
38611;SDS011;24368;52.156;20.788;2023-07-22T12:28:02;1.80;;;1.30;;
38611;SDS011;24368;52.156;20.788;2023-07-22T12:33:05;1.60;;;1.50;;
38611;SDS011;24368;52.156;20.788;2023-07-22T12:38:06;2.70;;;1.50;;
38611;SDS011;24368;52.156;20.788;2023-07-22T12:43:08;1.30;;;1.20;;
38611;SDS011;24368;52.156;20.788;2023-07-22T12:48:10;1.70;;;1.00;;
38611;SDS011;24368;52.156;20.788;2023-07-22T12:53:12;2.20;;;2.00;;
38611;SDS011;24368;52.156;20.788;2023-07-22T12:58:14;4.20;;;1.20;;
38611;SDS011;24368;52.156;20.788;2023-07-22T13:03:16;1.90;;;1.50;;
38611;SDS011;24368;52.156;20.788;2023-07-22T13:08:18;2.10;;;1.00;;
38611;SDS011;24368;52.156;20.788;2023-07-22T13:13:19;2.30;;;1.50;;
38611;SDS011;24368;52.156;20.788;2023-07-22T13:18:21;2.50;;;1.30;;
38611;SDS011;24368;52.156;20.788;2023-07-22T13:23:23;2.40;;;1.60;;
38611;SDS011;24368;52.156;20.788;2023-07-22T13:28:25;1.60;;;1.20;;
38611;SDS011;24368;52.156;20.788;2023-07-22T13:33:27;1.60;;;1.10;;
38611;SDS011;24368;52.156;20.788;2023-07-22T13:38:28;1.50;;;1.40;;
38611;SDS011;24368;52.156;20.788;2023-07-22T13:43:30;2.70;;;1.20;;
38611;SDS011;24368;52.156;20.788;2023-07-22T13:48:32;1.70;;;1.60;;
38611;SDS011;24368;52.156;20.788;2023-07-22T13:53:33;1.80;;;1.70;;
38611;SDS011;24368;52.156;20.788;2023-07-22T13:58:35;2.00;;;1.50;;
38611;SDS011;24368;52.156;20.788;2023-07-22T14:03:37;2.80;;;2.20;;
38611;SDS011;24368;52.156;20.788;2023-07-22T14:08:39;3.60;;;1.80;;
38611;SDS011;24368;52.156;20.788;2023-07-22T14:13:40;2.50;;;1.80;;
38611;SDS011;24368;52.156;20.788;2023-07-22T14:18:42;3.60;;;1.70;;
38611;SDS011;24368;52.156;20.788;2023-07-22T14:23:44;1.80;;;1.70;;
38611;SDS011;24368;52.156;20.788;2023-07-22T14:28:46;1.90;;;1.80;;
38611;SDS011;24368;52.156;20.788;2023-07-22T14:33:47;4.70;;;4.30;;
38611;SDS011;24368;52.156;20.788;2023-07-22T14:38:49;4.60;;;1.80;;
38611;SDS011;24368;52.156;20.788;2023-07-22T14:43:51;1.50;;;1.40;;
38611;SDS011;24368;52.156;20.788;2023-07-22T14:48:53;4.60;;;2.10;;
38611;SDS011;24368;52.156;20.788;2023-07-22T14:53:54;1.90;;;1.70;;
38611;SDS011;24368;52.156;20.788;2023-07-22T14:58:56;1.70;;;1.40;;
38611;SDS011;24368;52.156;20.788;2023-07-22T15:03:58;1.60;;;1.20;;
38611;SDS011;24368;52.156;20.788;2023-07-22T15:09:05;2.60;;;1.10;;
38611;SDS011;24368;52.156;20.788;2023-07-22T15:14:08;2.20;;;1.70;;
38611;SDS011;24368;52.156;20.788;2023-07-22T15:19:09;2.00;;;1.70;;
38611;SDS011;24368;52.156;20.788;2023-07-22T15:24:12;2.40;;;1.30;;
38611;SDS011;24368;52.156;20.788;2023-07-22T15:29:13;2.00;;;1.50;;
38611;SDS011;24368;52.156;20.788;2023-07-22T15:34:15;1.50;;;1.30;;
38611;SDS011;24368;52.156;20.788;2023-07-22T15:39:17;3.20;;;1.70;;
38611;SDS011;24368;52.156;20.788;2023-07-22T15:44:18;1.50;;;1.40;;
38611;SDS011;24368;52.156;20.788;2023-07-22T15:49:23;2.70;;;1.40;;
38611;SDS011;24368;52.156;20.788;2023-07-22T15:54:25;3.90;;;1.90;;
38611;SDS011;24368;52.156;20.788;2023-07-22T15:59:27;1.90;;;1.40;;
38611;SDS011;24368;52.156;20.788;2023-07-22T16:04:28;2.80;;;1.60;;
38611;SDS011;24368;52.156;20.788;2023-07-22T16:09:30;1.80;;;1.70;;
38611;SDS011;24368;52.156;20.788;2023-07-22T16:14:32;1.80;;;1.70;;
38611;SDS011;24368;52.156;20.788;2023-07-22T16:19:34;1.60;;;1.50;;
38611;SDS011;24368;52.156;20.788;2023-07-22T16:24:35;2.60;;;1.50;;
38611;SDS011;24368;52.156;20.788;2023-07-22T16:29:38;1.20;;;1.10;;
38611;SDS011;24368;52.156;20.788;2023-07-22T16:34:40;3.20;;;1.60;;
38611;SDS011;24368;52.156;20.788;2023-07-22T16:39:42;2.50;;;1.60;;
38611;SDS011;24368;52.156;20.788;2023-07-22T16:44:44;2.10;;;1.30;;
38611;SDS011;24368;52.156;20.788;2023-07-22T16:49:46;1.50;;;1.40;;
38611;SDS011;24368;52.156;20.788;2023-07-22T16:54:47;2.10;;;1.80;;
38611;SDS011;24368;52.156;20.788;2023-07-22T16:59:52;3.30;;;1.80;;
38611;SDS011;24368;52.156;20.788;2023-07-22T17:04:54;1.90;;;1.60;;
38611;SDS011;24368;52.156;20.788;2023-07-22T17:09:56;3.40;;;1.40;;
38611;SDS011;24368;52.156;20.788;2023-07-22T17:14:58;1.60;;;1.50;;
38611;SDS011;24368;52.156;20.788;2023-07-22T17:19:59;1.80;;;1.50;;
38611;SDS011;24368;52.156;20.788;2023-07-22T17:25:01;2.90;;;1.50;;
38611;SDS011;24368;52.156;20.788;2023-07-22T17:30:03;1.70;;;1.60;;
38611;SDS011;24368;52.156;20.788;2023-07-22T17:35:07;1.90;;;1.10;;
38611;SDS011;24368;52.156;20.788;2023-07-22T17:40:09;1.60;;;1.20;;
38611;SDS011;24368;52.156;20.788;2023-07-22T17:45:11;2.60;;;1.40;;
38611;SDS011;24368;52.156;20.788;2023-07-22T17:50:13;1.40;;;1.30;;
38611;SDS011;24368;52.156;20.788;2023-07-22T17:55:15;1.60;;;1.40;;
38611;SDS011;24368;52.156;20.788;2023-07-22T18:00:17;1.80;;;1.40;;
38611;SDS011;24368;52.156;20.788;2023-07-22T18:05:19;2.00;;;1.80;;
38611;SDS011;24368;52.156;20.788;2023-07-22T18:10:23;2.50;;;1.50;;
38611;SDS011;24368;52.156;20.788;2023-07-22T18:15:25;1.80;;;1.70;;
38611;SDS011;24368;52.156;20.788;2023-07-22T18:20:27;1.90;;;1.40;;
38611;SDS011;24368;52.156;20.788;2023-07-22T18:25:28;3.40;;;2.70;;
38611;SDS011;24368;52.156;20.788;2023-07-22T18:30:30;1.40;;;1.30;;
38611;SDS011;24368;52.156;20.788;2023-07-22T18:35:32;2.00;;;1.60;;
38611;SDS011;24368;52.156;20.788;2023-07-22T18:40:34;2.00;;;1.90;;
38611;SDS011;24368;52.156;20.788;2023-07-22T18:45:35;2.00;;;1.70;;
38611;SDS011;24368;52.156;20.788;2023-07-22T18:50:37;1.50;;;1.40;;
38611;SDS011;24368;52.156;20.788;2023-07-22T18:55:39;1.80;;;1.70;;
38611;SDS011;24368;52.156;20.788;2023-07-22T19:00:51;2.20;;;1.90;;
38611;SDS011;24368;52.156;20.788;2023-07-22T19:05:53;1.70;;;1.60;;
38611;SDS011;24368;52.156;20.788;2023-07-22T19:10:55;3.10;;;2.70;;
38611;SDS011;24368;52.156;20.788;2023-07-22T19:15:57;2.00;;;1.90;;
38611;SDS011;24368;52.156;20.788;2023-07-22T19:21:00;2.90;;;2.40;;
38611;SDS011;24368;52.156;20.788;2023-07-22T19:26:03;2.50;;;1.90;;
38611;SDS011;24368;52.156;20.788;2023-07-22T19:31:06;2.50;;;2.30;;
38611;SDS011;24368;52.156;20.788;2023-07-22T19:36:08;2.50;;;2.30;;
38611;SDS011;24368;52.156;20.788;2023-07-22T19:41:12;2.40;;;2.00;;
38611;SDS011;24368;52.156;20.788;2023-07-22T19:46:15;2.40;;;2.20;;
38611;SDS011;24368;52.156;20.788;2023-07-22T19:51:18;2.80;;;2.20;;
38611;SDS011;24368;52.156;20.788;2023-07-22T19:56:21;5.20;;;2.20;;
38611;SDS011;24368;52.156;20.788;2023-07-22T20:01:22;4.60;;;2.60;;
38611;SDS011;24368;52.156;20.788;2023-07-22T20:06:24;2.30;;;2.10;;
38611;SDS011;24368;52.156;20.788;2023-07-22T20:11:26;2.50;;;2.30;;
38611;SDS011;24368;52.156;20.788;2023-07-22T20:16:28;2.40;;;2.10;;
38611;SDS011;24368;52.156;20.788;2023-07-22T20:21:30;3.60;;;2.80;;
38611;SDS011;24368;52.156;20.788;2023-07-22T20:26:31;3.50;;;2.50;;
38611;SDS011;24368;52.156;20.788;2023-07-22T20:31:33;3.90;;;2.90;;
38611;SDS011;24368;52.156;20.788;2023-07-22T20:36:35;4.40;;;3.00;;
38611;SDS011;24368;52.156;20.788;2023-07-22T20:41:37;4.00;;;2.90;;
38611;SDS011;24368;52.156;20.788;2023-07-22T20:46:38;6.80;;;4.10;;
38611;SDS011;24368;52.156;20.788;2023-07-22T20:51:40;5.70;;;3.90;;
38611;SDS011;24368;52.156;20.788;2023-07-22T20:56:42;4.60;;;3.40;;
38611;SDS011;24368;52.156;20.788;2023-07-22T21:01:43;4.50;;;3.80;;
38611;SDS011;24368;52.156;20.788;2023-07-22T21:06:45;5.40;;;4.00;;
38611;SDS011;24368;52.156;20.788;2023-07-22T21:11:47;5.20;;;4.70;;
38611;SDS011;24368;52.156;20.788;2023-07-22T21:16:49;4.00;;;3.70;;
38611;SDS011;24368;52.156;20.788;2023-07-22T21:21:51;4.10;;;3.70;;
38611;SDS011;24368;52.156;20.788;2023-07-22T21:26:53;5.80;;;4.50;;
38611;SDS011;24368;52.156;20.788;2023-07-22T21:31:55;4.30;;;3.40;;
38611;SDS011;24368;52.156;20.788;2023-07-22T21:36:56;4.90;;;4.30;;
38611;SDS011;24368;52.156;20.788;2023-07-22T21:41:58;4.70;;;3.50;;
38611;SDS011;24368;52.156;20.788;2023-07-22T21:47:04;4.30;;;3.90;;
38611;SDS011;24368;52.156;20.788;2023-07-22T21:52:09;5.10;;;3.80;;
38611;SDS011;24368;52.156;20.788;2023-07-22T21:57:11;4.10;;;3.60;;
38611;SDS011;24368;52.156;20.788;2023-07-22T22:02:13;4.80;;;4.00;;
38611;SDS011;24368;52.156;20.788;2023-07-22T22:07:15;4.50;;;3.80;;
38611;SDS011;24368;52.156;20.788;2023-07-22T22:12:16;3.60;;;3.10;;
38611;SDS011;24368;52.156;20.788;2023-07-22T22:17:18;3.50;;;3.20;;
38611;SDS011;24368;52.156;20.788;2023-07-22T22:22:20;5.20;;;3.00;;
38611;SDS011;24368;52.156;20.788;2023-07-22T22:27:22;4.90;;;3.40;;
38611;SDS011;24368;52.156;20.788;2023-07-22T22:32:23;4.00;;;3.10;;
38611;SDS011;24368;52.156;20.788;2023-07-22T22:37:25;3.20;;;3.00;;
38611;SDS011;24368;52.156;20.788;2023-07-22T22:42:27;4.60;;;3.30;;
38611;SDS011;24368;52.156;20.788;2023-07-22T22:47:29;3.60;;;2.90;;
38611;SDS011;24368;52.156;20.788;2023-07-22T22:52:31;4.00;;;3.30;;
38611;SDS011;24368;52.156;20.788;2023-07-22T22:57:34;3.40;;;3.20;;
38611;SDS011;24368;52.156;20.788;2023-07-22T23:02:36;6.60;;;3.20;;
38611;SDS011;24368;52.156;20.788;2023-07-22T23:07:38;3.60;;;3.30;;
38611;SDS011;24368;52.156;20.788;2023-07-22T23:12:40;3.40;;;3.10;;
38611;SDS011;24368;52.156;20.788;2023-07-22T23:17:42;3.50;;;2.90;;
38611;SDS011;24368;52.156;20.788;2023-07-22T23:22:44;7.30;;;3.10;;
38611;SDS011;24368;52.156;20.788;2023-07-22T23:27:46;3.50;;;3.00;;
38611;SDS011;24368;52.156;20.788;2023-07-22T23:32:47;3.80;;;3.20;;
38611;SDS011;24368;52.156;20.788;2023-07-22T23:37:49;3.00;;;2.80;;
38611;SDS011;24368;52.156;20.788;2023-07-22T23:42:51;3.50;;;2.80;;
38611;SDS011;24368;52.156;20.788;2023-07-22T23:47:53;3.70;;;3.40;;
38611;SDS011;24368;52.156;20.788;2023-07-22T23:52:54;3.60;;;3.20;;
38611;SDS011;24368;52.156;20.788;2023-07-22T23:57:59;3.40;;;3.10;;
